Time;durP1;ratioP1;P1;durP2;ratioP2;P2;SDS_P1;SDS_P2;PMS_P1;PMS_P2;Temp;Humidity;BMP_temperature;BMP_pressure;BME280_temperature;BME280_humidity;BME280_pressure;Samples;Min_cycle;Max_cycle;Signal;HPM_P1;HPM_P2
2022/09/14 00:00:53;;;;;;;2.55;1.05;;;;;;;16.83;78.22;99441.25;6306893;22;20065;-79
2022/09/14 00:03:18;;;;;;;;;;;;;;;16.90;78.82;99445.19;6306931;22;20001;-79
2022/09/14 00:05:44;;;;;;;1.75;0.75;;;;;;;16.93;78.94;99441.63;6306100;22;19911;-79
2022/09/14 00:08:09;;;;;;;;;;;;;;;16.77;79.16;99439.28;6306601;22;20472;-78
2022/09/14 00:10:42;;;;;;;1.70;0.80;;;;;;;16.84;79.11;99439.28;6306123;22;20216;-79
2022/09/14 00:13:09;;;;;;;3.60;0.88;;;;;;;16.90;78.95;99434.97;6278716;22;20007;-79
2022/09/14 00:15:39;;;;;;;1.90;0.90;;;;;;;16.89;78.63;99427.91;6306186;22;20336;-79
2022/09/14 00:18:05;;;;;;;2.70;0.80;;;;;;;16.86;79.01;99425.94;6278331;22;20029;-79
2022/09/14 00:20:32;;;;;;;3.90;1.17;;;;;;;16.74;79.22;99418.84;6278439;22;20061;-79
2022/09/14 00:22:57;;;;;;;3.70;1.08;;;;;;;16.78;80.23;99416.88;6306424;22;19995;-79
2022/09/14 00:25:25;;;;;;;4.28;1.15;;;;;;;16.75;80.05;99414.16;6305914;22;20026;-79
2022/09/14 00:27:51;;;;;;;2.75;0.90;;;;;;;16.63;79.44;99401.56;6306054;22;20087;-79
2022/09/14 00:30:17;;;;;;;2.47;0.88;;;;;;;16.70;80.45;99401.59;6305958;22;20436;-79
2022/09/14 00:32:43;;;;;;;3.42;0.80;;;;;;;16.63;79.53;99395.25;6277293;22;20015;-78
2022/09/14 00:35:09;;;;;;;2.33;1.10;;;;;;;16.59;79.71;99397.22;6305844;22;20003;-79
2022/09/14 00:37:34;;;;;;;3.60;0.90;;;;;;;16.56;80.16;99401.56;6278241;22;20011;-79
2022/09/14 00:39:59;;;;;;;;;;;;;;;16.67;79.78;99401.59;6306097;22;20027;-79
2022/09/14 00:42:26;;;;;;;6.03;1.07;;;;;;;16.67;79.24;99396.09;6305585;22;19979;-78
2022/09/14 00:44:53;;;;;;;1.77;0.77;;;;;;;16.74;79.43;99393.34;6277345;22;20279;-79
2022/09/14 00:47:19;;;;;;;4.18;0.90;;;;;;;16.70;78.80;99381.56;6305810;22;20003;-78
2022/09/14 00:49:45;;;;;;;2.38;0.95;;;;;;;16.61;79.20;99378.38;6306085;22;20367;-78
2022/09/14 00:52:25;;;;;;;;;;;;;;;16.64;78.69;99372.91;6278813;22;20087;-78
2022/09/14 00:54:57;;;;;;;3.70;1.00;;;;;;;16.54;78.86;99362.69;6305801;22;19910;-79
2022/09/14 00:57:24;;;;;;;1.60;0.75;;;;;;;16.56;78.75;99354.84;6278309;22;20007;-79
2022/09/14 00:59:52;;;;;;;2.55;1.08;;;;;;;16.54;78.99;99357.97;6305375;22;20018;-78
2022/09/14 01:02:20;;;;;;;5.20;1.00;;;;;;;16.58;79.17;99359.94;6306505;22;20057;-79
2022/09/14 01:04:46;;;;;;;4.20;0.90;;;;;;;16.65;79.50;99354.44;6305721;22;20324;-78
2022/09/14 01:07:44;;;;;;;4.28;1.02;;;;;;;16.64;79.23;99348.16;6278286;22;20030;-78
2022/09/14 01:10:24;;;;;;;2.15;0.77;;;;;;;16.44;78.39;99344.22;6278151;22;20018;-79
2022/09/14 01:13:21;;;;;;;4.15;1.15;;;;;;;16.32;79.04;99341.88;6252598;22;20065;-79
2022/09/14 01:15:53;;;;;;;5.18;1.17;;;;;;;16.35;79.24;99349.34;6305713;22;20033;-79
2022/09/14 01:18:42;;;;;;;3.22;0.95;;;;;;;16.33;79.21;99348.94;6278168;22;20006;-78
2022/09/14 01:21:25;;;;;;;2.53;0.93;;;;;;;16.23;79.63;99351.28;6305115;22;20079;-79
2022/09/14 01:24:26;;;;;;;2.67;0.95;;;;;;;16.13;79.36;99345.78;6305296;22;20333;-79
2022/09/14 01:27:00;;;;;;;2.90;0.68;;;;;;;16.09;79.94;99342.25;6305515;22;20002;-79
2022/09/14 01:29:32;;;;;;;3.90;0.75;;;;;;;15.93;80.27;99337.91;6305476;22;20027;-79
2022/09/14 01:32:00;;;;;;;3.55;0.73;;;;;;;15.92;80.70;99336.31;6305700;22;20003;-79
2022/09/14 01:34:46;;;;;;;3.85;1.38;;;;;;;15.90;81.31;99333.19;6306073;22;20112;-79
2022/09/14 01:37:19;;;;;;;3.75;0.90;;;;;;;15.91;82.05;99333.97;6305528;22;20038;-80
2022/09/14 01:39:59;;;;;;;3.33;0.95;;;;;;;15.75;83.04;99337.06;6305547;22;20038;-84
2022/09/14 01:42:27;;;;;;;3.85;1.27;;;;;;;15.71;83.25;99341.78;6305102;22;20000;-83
2022/09/14 01:44:58;;;;;;;3.83;0.90;;;;;;;15.59;84.43;99339.38;6278152;22;19999;-84
2022/09/14 01:47:32;;;;;;;5.18;0.95;;;;;;;15.50;85.30;99334.22;6305989;22;20180;-84
2022/09/14 01:50:15;;;;;;;5.55;1.38;;;;;;;15.43;86.38;99331.44;6307486;22;20000;-83
2022/09/14 01:52:45;;;;;;;4.45;0.88;;;;;;;15.40;86.31;99324.00;6274237;22;20025;-83
2022/09/14 01:55:30;;;;;;;3.72;0.90;;;;;;;15.37;86.19;99318.50;6280116;22;20052;-83
2022/09/14 01:58:08;;;;;;;3.90;0.70;;;;;;;15.41;86.58;99328.31;6307686;22;20003;-80
2022/09/14 02:00:38;;;;;;;4.78;1.00;;;;;;;15.32;85.71;99327.88;6307278;22;20006;-81
2022/09/14 02:03:12;;;;;;;3.13;0.90;;;;;;;15.27;86.46;99326.28;6307297;22;20019;-81
2022/09/14 02:05:47;;;;;;;3.17;0.95;;;;;;;15.31;86.35;99332.59;6307349;22;20045;-81
2022/09/14 02:08:12;;;;;;;2.47;1.05;;;;;;;15.40;85.83;99325.94;6279987;22;21008;-80
2022/09/14 02:10:38;;;;;;;1.75;0.75;;;;;;;15.50;86.01;99333.44;6307450;22;20074;-80
2022/09/14 02:13:03;;;;;;;;;;;;;;;15.50;85.75;99331.47;6307906;22;20007;-80
2022/09/14 02:15:28;;;;;;;1.25;0.50;;;;;;;15.57;85.11;99330.72;6307240;22;20212;-80
2022/09/14 02:17:55;;;;;;;1.85;0.80;;;;;;;15.61;84.76;99324.09;6307183;22;20080;-79
2022/09/14 02:20:28;;;;;;;3.75;1.00;;;;;;;15.46;83.46;99338.13;6307343;22;20004;-79
2022/09/14 02:22:55;;;;;;;3.17;0.88;;;;;;;15.46;83.87;99332.66;6279814;22;20463;-79
2022/09/14 02:25:21;;;;;;;3.10;1.00;;;;;;;15.35;83.96;99330.63;6307221;22;20078;-78
2022/09/14 02:27:47;;;;;;;2.65;0.73;;;;;;;15.35;84.07;99333.38;6306763;22;20467;-79
2022/09/14 02:30:12;;;;;;;;;;;;;;;15.35;84.09;99325.16;6254689;22;20007;-81
2022/09/14 02:33:09;;;;;;;3.78;0.80;;;;;;;15.51;84.23;99321.28;6306845;22;20377;-81
2022/09/14 02:35:40;;;;;;;2.47;0.73;;;;;;;15.41;83.84;99322.03;6307470;22;19999;-80
2022/09/14 02:38:20;;;;;;;3.47;1.05;;;;;;;15.30;83.91;99322.78;6306830;22;20079;-81
2022/09/14 02:40:51;;;;;;;1.60;0.68;;;;;;;15.41;85.43;99316.53;6279418;22;20364;-79
2022/09/14 02:43:41;;;;;;;3.10;0.70;;;;;;;15.32;84.31;99314.19;6306842;22;20003;-80
2022/09/14 02:46:26;;;;;;;1.30;0.60;;;;;;;15.32;84.75;99312.22;6279599;22;20423;-80
2022/09/14 02:48:54;;;;;;;2.38;0.93;;;;;;;15.26;84.24;99321.19;6306887;22;20003;-82
2022/09/14 02:51:38;;;;;;;1.80;0.73;;;;;;;15.32;84.10;99314.97;6279376;22;20078;-79
2022/09/14 02:54:25;;;;;;;3.65;1.13;;;;;;;15.32;83.74;99309.47;6306979;22;20013;-79
2022/09/14 02:56:52;;;;;;;2.80;0.93;;;;;;;15.42;84.08;99312.63;6306844;22;20007;-80
2022/09/14 02:59:18;;;;;;;1.85;0.73;;;;;;;15.52;84.20;99317.38;6307020;22;20011;-81
2022/09/14 03:01:43;;;;;;;4.22;1.25;;;;;;;15.50;83.80;99311.50;6307220;22;20381;-82
2022/09/14 03:04:09;;;;;;;;;;;;;;;15.48;83.95;99313.84;6306948;22;20078;-79
2022/09/14 03:06:35;;;;;;;2.42;1.05;;;;;;;15.58;84.29;99304.84;6279277;22;20316;-80
2022/09/14 03:09:00;;;;;;;2.42;0.60;;;;;;;15.51;84.14;99297.38;6306826;22;20444;-79
2022/09/14 03:11:25;;;;;;;6.15;1.33;;;;;;;15.34;84.14;99304.38;6306320;22;20046;-79
2022/09/14 03:13:51;;;;;;;;;;;;;;;15.22;84.22;99298.44;6306968;22;20080;-79
2022/09/14 03:16:18;;;;;;;1.90;0.80;;;;;;;15.39;85.41;99296.94;6306823;22;19910;-79
2022/09/14 03:18:43;;;;;;;2.17;0.70;;;;;;;15.20;83.74;99293.34;6306895;22;20010;-79
2022/09/14 03:21:11;;;;;;;2.33;0.90;;;;;;;15.26;84.00;99283.56;6306702;22;19999;-78
2022/09/14 03:23:38;;;;;;;1.25;0.60;;;;;;;15.27;83.91;99278.88;6254027;22;20011;-79
2022/09/14 03:26:08;;;;;;;6.68;1.77;;;;;;;15.25;84.05;99281.22;6306321;22;20037;-79
2022/09/14 03:28:34;;;;;;;2.00;0.65;;;;;;;15.30;84.35;99276.16;6306498;22;20003;-78
2022/09/14 03:31:01;;;;;;;3.15;0.75;;;;;;;15.25;85.37;99278.47;6306775;22;20017;-78
2022/09/14 03:33:26;;;;;;;3.83;1.08;;;;;;;15.25;85.96;99276.53;6306652;22;20038;-80
2022/09/14 03:35:51;;;;;;;3.90;1.03;;;;;;;15.14;85.54;99267.47;6279145;22;20003;-80
2022/09/14 03:38:16;;;;;;;;;;;;;;;14.98;87.22;99267.03;6279393;22;20495;-79
2022/09/14 03:40:43;;;;;;;2.23;0.83;;;;;;;14.89;87.47;99259.13;6273588;22;19911;-82
2022/09/14 03:43:11;;;;;;;1.65;0.68;;;;;;;14.82;88.48;99263.81;6275650;22;20000;-83
2022/09/14 03:45:37;;;;;;;3.67;1.00;;;;;;;14.77;88.50;99255.94;6275655;22;20003;-84
2022/09/14 03:48:04;;;;;;;1.88;0.88;;;;;;;14.70;88.83;99257.47;6275711;22;20420;-85
2022/09/14 03:50:30;;;;;;;2.35;0.80;;;;;;;14.70;89.42;99257.47;6275536;22;20026;-85
2022/09/14 03:52:56;;;;;;;2.45;0.95;;;;;;;14.64;90.41;99258.22;6276108;22;20004;-85
2022/09/14 03:55:22;;;;;;;;;;;;;;;14.68;90.43;99259.03;6274382;22;20368;-84
2022/09/14 03:57:51;;;;;;;3.95;0.90;;;;;;;14.62;90.74;99255.88;6275673;22;19917;-84
2022/09/14 04:00:17;;;;;;;3.50;0.98;;;;;;;14.55;90.72;99258.53;6275711;22;20000;-85
2022/09/14 04:02:43;;;;;;;3.30;1.00;;;;;;;14.62;90.28;99250.38;6273657;22;20337;-85
2022/09/14 04:05:09;;;;;;;3.10;1.10;;;;;;;14.60;90.83;99249.97;6275158;22;20433;-85
2022/09/14 04:07:35;;;;;;;3.00;1.02;;;;;;;14.63;90.35;99243.75;6273311;22;19999;-85
2022/09/14 04:10:00;;;;;;;4.22;1.08;;;;;;;14.71;90.48;99258.25;6273451;22;20587;-84
2022/09/14 04:12:26;;;;;;;4.00;1.02;;;;;;;14.74;90.06;99247.31;6273532;22;20061;-83
2022/09/14 04:14:51;;;;;;;;;;;;;;;14.75;89.95;99250.81;6273890;22;20004;-82
2022/09/14 04:17:17;;;;;;;3.50;1.15;;;;;;;14.69;89.69;99247.69;6275206;22;19909;-80
2022/09/14 04:19:42;;;;;;;;;;;;;;;14.82;90.26;99247.34;6273498;22;20007;-84
2022/09/14 04:22:07;;;;;;;3.00;1.00;;;;;;;14.70;90.09;99246.50;6275655;22;19911;-89
2022/09/14 04:24:33;;;;;;;;;;;;;;;14.75;91.09;99251.63;6273595;22;20011;-83
2022/09/14 04:26:58;;;;;;;5.28;1.60;;;;;;;14.78;90.64;99247.34;6275395;22;19904;-85
2022/09/14 04:29:23;;;;;;;;;;;;;;;14.78;91.07;99246.53;6276248;22;20003;-83
2022/09/14 04:31:50;;;;;;;7.50;1.10;;;;;;;14.87;90.80;99255.22;6273427;22;19935;-82
2022/09/14 04:34:16;;;;;;;2.30;1.00;;;;;;;14.86;91.21;99243.47;6273244;22;20101;-83
2022/09/14 04:36:42;;;;;;;3.08;1.10;;;;;;;14.86;91.65;99250.91;6275434;22;20011;-79
2022/09/14 04:39:10;;;;;;;2.25;1.05;;;;;;;14.81;91.98;99251.28;6285154;22;20076;-78
2022/09/14 04:41:36;;;;;;;4.85;1.30;;;;;;;14.77;91.73;99250.44;6278357;22;20007;-78
2022/09/14 04:44:02;;;;;;;2.53;0.82;;;;;;;14.73;91.53;99253.94;6278757;22;20385;-79
2022/09/14 04:46:30;;;;;;;6.10;1.10;;;;;;;14.84;90.67;99245.00;6305459;22;20385;-78
2022/09/14 04:48:55;;;;;;;5.55;1.27;;;;;;;14.71;91.50;99250.81;6278355;22;19999;-77
2022/09/14 04:51:27;;;;;;;5.07;1.45;;;;;;;14.68;92.62;99243.38;6305248;22;20010;-78
2022/09/14 04:53:55;;;;;;;2.38;1.00;;;;;;;14.66;93.81;99245.72;6305205;22;20003;-79
2022/09/14 04:56:22;;;;;;;2.78;1.20;;;;;;;14.57;93.55;99245.25;6278263;22;20006;-79
2022/09/14 04:58:52;;;;;;;3.33;1.20;;;;;;;14.72;93.24;99252.38;6278542;22;20022;-80
2022/09/14 05:01:20;;;;;;;3.75;1.45;;;;;;;14.64;93.74;99247.25;6278356;22;20007;-79
2022/09/14 05:03:47;;;;;;;3.30;1.10;;;;;;;14.51;93.93;99248.75;6277998;22;20007;-80
2022/09/14 05:06:15;;;;;;;3.88;0.90;;;;;;;14.52;94.34;99239.34;6305583;22;20296;-81
2022/09/14 05:08:42;;;;;;;3.55;1.55;;;;;;;14.58;95.22;99241.34;6305242;22;20082;-81
2022/09/14 05:11:08;;;;;;;4.00;1.10;;;;;;;14.37;95.73;99243.91;6305546;22;20451;-81
2022/09/14 05:13:35;;;;;;;5.82;1.20;;;;;;;14.46;96.16;99243.63;6277765;22;20003;-82
2022/09/14 05:16:04;;;;;;;;;;;;;;;14.34;96.86;99242.72;6278669;22;20018;-80
2022/09/14 05:18:29;;;;;;;4.63;1.83;;;;;;;14.37;97.25;99250.19;6306027;22;20217;-82
2022/09/14 05:20:55;;;;;;;4.47;1.55;;;;;;;14.34;97.07;99255.63;6279352;22;20072;-81
2022/09/14 05:23:20;;;;;;;5.50;1.63;;;;;;;14.24;97.12;99253.59;6307339;22;20003;-81
2022/09/14 05:25:51;;;;;;;4.63;2.00;;;;;;;14.14;98.31;99252.38;6307784;22;20469;-81
2022/09/14 05:28:17;;;;;;;6.65;1.83;;;;;;;14.14;98.84;99258.63;6306860;22;20034;-81
2022/09/14 05:30:42;;;;;;;4.90;1.50;;;;;;;14.12;99.09;99257.44;6307124;22;20003;-79
2022/09/14 05:33:08;;;;;;;;;;;;;;;14.04;99.32;99251.09;6307613;22;20030;-78
2022/09/14 05:35:34;;;;;;;2.75;1.30;;;;;;;14.04;99.83;99253.84;6279340;22;19989;-79
2022/09/14 05:37:59;;;;;;;4.90;1.83;;;;;;;13.95;98.71;99244.41;6306731;22;19999;-78
2022/09/14 05:40:24;;;;;;;3.77;1.30;;;;;;;13.86;100.00;99244.69;6306521;22;20358;-79
2022/09/14 05:42:50;;;;;;;8.67;1.80;;;;;;;13.87;100.00;99246.25;6307931;22;20222;-81
2022/09/14 05:45:15;;;;;;;3.75;1.60;;;;;;;13.83;100.00;99248.19;6255529;22;20242;-82
2022/09/14 05:47:45;;;;;;;4.20;1.48;;;;;;;13.79;100.00;99245.44;6307839;22;20010;-81
2022/09/14 05:50:10;;;;;;;5.45;1.63;;;;;;;13.72;100.00;99250.03;6307935;22;20011;-80
2022/09/14 05:52:35;;;;;;;6.80;1.60;;;;;;;13.63;100.00;99242.16;6306723;22;20010;-79
2022/09/14 05:55:01;;;;;;;3.50;1.47;;;;;;;13.66;100.00;99241.38;6306475;22;20242;-80
2022/09/14 05:57:26;;;;;;;7.68;1.77;;;;;;;13.54;100.00;99242.44;6278759;22;20268;-79
2022/09/14 05:59:51;;;;;;;3.30;1.43;;;;;;;13.59;100.00;99244.03;6306580;22;20018;-79
2022/09/14 06:02:17;;;;;;;;;;;;;;;13.45;100.00;99244.69;6306768;22;19995;-79
2022/09/14 06:04:42;;;;;;;6.53;1.87;;;;;;;13.52;100.00;99246.72;6279227;22;20332;-79
2022/09/14 06:07:07;;;;;;;;;;;;;;;13.54;100.00;99241.66;6307229;22;20135;-79
2022/09/14 06:09:32;;;;;;;7.43;2.00;;;;;;;13.59;100.00;99248.72;6306656;22;19910;-80
2022/09/14 06:11:58;;;;;;;5.73;1.53;;;;;;;13.54;100.00;99247.13;6306514;22;20003;-82
2022/09/14 06:14:23;;;;;;;4.23;1.53;;;;;;;13.54;100.00;99247.91;6278775;22;20225;-81
2022/09/14 06:16:48;;;;;;;7.80;1.70;;;;;;;13.54;100.00;99247.91;6306054;22;20225;-81
2022/09/14 06:19:14;;;;;;;2.87;1.20;;;;;;;13.44;100.00;99242.34;6306268;22;20218;-81
2022/09/14 06:21:40;;;;;;;;;;;;;;;13.44;100.00;99239.59;6306745;22;19999;-80
2022/09/14 06:24:05;;;;;;;4.30;1.95;;;;;;;13.43;100.00;99241.53;6306199;22;19982;-82
2022/09/14 06:26:31;;;;;;;3.50;1.70;;;;;;;13.52;100.00;99246.72;6306342;22;20006;-81
2022/09/14 06:28:56;;;;;;;6.38;2.08;;;;;;;13.49;100.00;99245.53;6306754;22;20080;-82
2022/09/14 06:31:21;;;;;;;11.80;2.17;;;;;;;13.47;100.00;99245.09;6278318;22;20007;-81
2022/09/14 06:33:49;;;;;;;4.27;1.90;;;;;;;13.47;100.00;99241.59;6306181;22;19999;-83
2022/09/14 06:36:19;;;;;;;6.07;2.30;;;;;;;13.50;100.00;99241.63;6306626;22;20226;-82
2022/09/14 06:38:47;;;;;;;8.23;2.25;;;;;;;13.34;100.00;99241.06;6278474;22;20007;-83
2022/09/14 06:41:16;;;;;;;4.20;1.60;;;;;;;13.37;100.00;99243.03;6278407;22;20018;-83
2022/09/14 06:43:42;;;;;;;11.18;2.35;;;;;;;13.41;100.00;99249.31;6306706;22;20010;-81
2022/09/14 06:46:30;;;;;;;7.35;2.00;;;;;;;13.57;100.00;99253.78;6306156;22;20318;-81
2022/09/14 06:49:00;;;;;;;7.97;2.10;;;;;;;13.43;100.00;99251.69;6306124;22;20003;-81
2022/09/14 06:51:26;;;;;;;7.80;2.47;;;;;;;13.40;100.00;99247.75;6278975;22;20003;-80
2022/09/14 06:53:52;;;;;;;10.35;2.70;;;;;;;13.41;100.00;99248.53;6278879;22;19995;-80
2022/09/14 06:56:19;;;;;;;5.38;2.20;;;;;;;13.38;100.00;99255.53;6306498;22;20006;-80
2022/09/14 06:58:44;;;;;;;4.50;2.08;;;;;;;13.36;100.00;99257.88;6306498;22;20011;-79
2022/09/14 07:01:10;;;;;;;;;;;;;;;13.23;100.00;99253.81;6306791;22;20002;-79
2022/09/14 07:03:38;;;;;;;3.85;1.70;;;;;;;13.26;100.00;99250.31;6306168;22;19910;-79
2022/09/14 07:06:10;;;;;;;3.65;1.67;;;;;;;13.23;100.00;99248.34;6306203;22;19999;-79
2022/09/14 07:08:36;;;;;;;8.38;2.17;;;;;;;13.15;100.00;99246.66;6306686;22;20078;-79
2022/09/14 07:11:02;;;;;;;7.70;1.92;;;;;;;13.13;100.00;99249.78;6306336;22;19999;-79
2022/09/14 07:13:29;;;;;;;4.32;1.80;;;;;;;13.22;100.00;99250.28;6305554;22;19999;-80
2022/09/14 07:15:54;;;;;;;5.88;1.67;;;;;;;13.14;100.00;99254.09;6306410;22;20094;-80
2022/09/14 07:18:26;;;;;;;4.75;2.05;;;;;;;13.04;100.00;99257.47;6306328;22;20077;-79
2022/09/14 07:20:51;;;;;;;6.07;1.90;;;;;;;13.09;100.00;99259.06;6306530;22;20004;-79
2022/09/14 07:23:19;;;;;;;4.20;1.70;;;;;;;13.08;100.00;99257.50;6306897;22;20450;-79
2022/09/14 07:25:45;;;;;;;4.93;1.67;;;;;;;13.07;100.00;99261.41;6278979;22;20007;-79
2022/09/14 07:28:10;;;;;;;4.23;1.73;;;;;;;13.07;100.00;99262.19;6306531;22;20436;-79
2022/09/14 07:30:37;;;;;;;5.05;2.20;;;;;;;12.99;100.00;99266.00;6306330;22;20006;-79
2022/09/14 07:33:03;;;;;;;3.90;1.60;;;;;;;13.03;100.00;99260.56;6306208;22;20006;-77
2022/09/14 07:35:29;;;;;;;3.75;1.40;;;;;;;13.07;100.00;99261.41;6306225;22;20003;-78
2022/09/14 07:37:55;;;;;;;;;;;;;;;13.02;100.00;99261.72;6306683;22;20048;-77
2022/09/14 07:40:22;;;;;;;3.63;1.85;;;;;;;13.05;100.00;99252.78;6278702;22;20236;-78
2022/09/14 07:42:52;;;;;;;4.13;1.85;;;;;;;12.85;100.00;99254.88;6306018;22;19995;-78
2022/09/14 07:45:17;;;;;;;7.50;2.45;;;;;;;12.87;100.00;99258.03;6306113;22;20379;-77
2022/09/14 07:47:42;;;;;;;6.20;2.20;;;;;;;12.83;100.00;99252.53;6278259;22;20034;-77
2022/09/14 07:50:08;;;;;;;8.83;2.07;;;;;;;12.85;100.00;99255.66;6305675;22;20244;-77
2022/09/14 07:52:34;;;;;;;;;;;;;;;12.93;100.00;99251.88;6306148;22;19995;-76
2022/09/14 07:54:59;;;;;;;5.37;1.87;;;;;;;12.94;100.00;99253.44;6278040;22;19914;-77
2022/09/14 07:57:24;;;;;;;4.55;1.90;;;;;;;13.02;100.00;99254.31;6252578;22;20234;-77
2022/09/14 07:59:52;;;;;;;6.63;2.40;;;;;;;12.98;100.00;99253.50;6305609;22;19999;-77
2022/09/14 08:02:17;;;;;;;4.78;2.03;;;;;;;13.02;100.00;99253.53;6278844;22;20360;-76
2022/09/14 08:04:43;;;;;;;5.05;2.05;;;;;;;12.94;100.00;99249.94;6304893;22;20433;-76
2022/09/14 08:07:10;;;;;;;6.07;2.58;;;;;;;12.95;100.00;99251.50;6305620;22;20003;-76
2022/09/14 08:09:37;;;;;;;5.00;2.30;;;;;;;12.87;100.00;99242.41;6306083;22;20080;-75
2022/09/14 08:12:04;;;;;;;5.72;2.42;;;;;;;12.91;100.00;99243.25;6278605;22;20003;-78
2022/09/14 08:14:29;;;;;;;5.47;2.50;;;;;;;13.00;100.00;99245.72;6305782;22;20086;-78
2022/09/14 08:16:55;;;;;;;7.00;2.80;;;;;;;12.94;100.00;99233.53;6305435;22;20030;-78
2022/09/14 08:19:20;;;;;;;4.65;2.28;;;;;;;12.90;100.00;99230.75;6277377;22;20077;-79
2022/09/14 08:21:46;;;;;;;5.40;2.17;;;;;;;12.87;100.00;99233.44;6305654;22;19995;-79
2022/09/14 08:24:17;;;;;;;6.47;2.58;;;;;;;12.89;100.00;99223.72;6305986;22;20121;-79
2022/09/14 08:26:43;;;;;;;5.30;2.83;;;;;;;12.90;100.00;99225.28;6306231;22;20007;-80
2022/09/14 08:29:11;;;;;;;7.68;2.63;;;;;;;12.81;100.00;99230.25;6278636;22;20017;-80
2022/09/14 08:31:37;;;;;;;5.90;2.58;;;;;;;12.98;100.00;99236.31;6277948;22;20003;-80
2022/09/14 08:34:04;;;;;;;4.57;2.40;;;;;;;12.97;100.00;99237.47;6305522;22;20369;-80
2022/09/14 08:36:36;;;;;;;6.50;1.77;;;;;;;12.87;100.00;99242.41;6278208;22;20014;-80
2022/09/14 08:39:08;;;;;;;3.38;1.60;;;;;;;12.88;100.00;99238.53;6273280;22;20393;-80
2022/09/14 08:41:42;;;;;;;5.47;1.85;;;;;;;12.88;100.00;99233.06;6274514;22;20467;-80
2022/09/14 08:44:19;;;;;;;4.38;2.00;;;;;;;12.81;100.00;99232.19;6275355;22;20000;-81
2022/09/14 08:47:14;;;;;;;3.88;1.45;;;;;;;12.86;100.00;99219.00;6274782;22;20015;-80
2022/09/14 08:50:11;;;;;;;5.22;2.08;;;;;;;12.84;100.00;99226.00;6264111;22;20007;-80
2022/09/14 08:52:41;;;;;;;9.02;1.88;;;;;;;12.84;100.00;99220.53;6274547;22;19996;-80
2022/09/14 08:55:15;;;;;;;6.80;2.00;;;;;;;12.83;100.00;99210.75;6274926;22;20000;-81
2022/09/14 08:58:03;;;;;;;5.85;2.13;;;;;;;12.77;100.00;99213.03;6275124;22;20026;-80
2022/09/14 09:00:42;;;;;;;6.00;2.63;;;;;;;12.74;100.00;99208.28;6275179;22;20078;-81
2022/09/14 09:03:41;;;;;;;4.32;1.77;;;;;;;12.82;100.00;99217.38;6275234;22;20094;-80
2022/09/14 09:06:35;;;;;;;4.45;1.52;;;;;;;12.88;100.00;99210.41;6275051;22;20003;-83
2022/09/14 09:09:23;;;;;;;9.15;2.28;;;;;;;12.85;100.00;99211.16;6274421;22;20345;-80
2022/09/14 09:11:51;;;;;;;6.38;1.98;;;;;;;12.93;100.00;99218.28;6273198;22;20032;-82
2022/09/14 09:14:38;;;;;;;4.35;1.60;;;;;;;13.00;100.00;99212.13;6272919;22;20079;-81
2022/09/14 09:17:10;;;;;;;;;;;;;;;13.12;100.00;99214.63;6275546;22;20007;-80
2022/09/14 09:20:02;;;;;;;5.15;2.25;;;;;;;12.98;100.00;99217.97;6274920;22;19953;-80
2022/09/14 09:22:37;;;;;;;5.40;2.08;;;;;;;13.06;100.00;99222.34;6275260;22;19999;-80
2022/09/14 09:25:03;;;;;;;6.38;2.33;;;;;;;13.12;100.00;99220.09;6274973;22;20025;-80
2022/09/14 09:27:30;;;;;;;5.00;2.10;;;;;;;13.07;100.00;99217.66;6274470;22;20133;-81
2022/09/14 09:29:57;;;;;;;5.25;2.53;;;;;;;13.04;100.00;99212.94;6273608;22;20105;-82
2022/09/14 09:32:24;;;;;;;5.93;1.90;;;;;;;13.02;100.00;99212.53;6272549;22;20003;-82
2022/09/14 09:34:51;;;;;;;5.80;1.98;;;;;;;13.04;100.00;99213.72;6274719;22;20018;-82
2022/09/14 09:37:21;;;;;;;6.03;2.50;;;;;;;13.06;100.00;99219.63;6274643;22;20007;-84
2022/09/14 09:39:46;;;;;;;11.57;5.07;;;;;;;13.06;100.00;99221.56;6293132;22;20086;-81
2022/09/14 09:42:33;;;;;;;6.80;1.83;;;;;;;13.06;100.00;99225.09;6278177;22;20046;-83
2022/09/14 09:45:05;;;;;;;4.95;2.15;;;;;;;13.10;100.00;99227.84;6277578;22;19999;-83
2022/09/14 09:47:35;;;;;;;7.68;1.95;;;;;;;13.11;100.00;99221.25;6306255;22;19999;-84
2022/09/14 09:50:17;;;;;;;5.60;2.33;;;;;;;13.04;100.00;99224.66;6277614;22;20137;-82
2022/09/14 09:52:58;;;;;;;4.93;1.65;;;;;;;13.07;100.00;99223.91;6279234;22;19991;-83
2022/09/14 09:55:34;;;;;;;6.05;2.40;;;;;;;13.17;100.00;99223.25;6305534;22;20007;-81
2022/09/14 09:58:22;;;;;;;4.50;2.28;;;;;;;13.21;100.00;99223.34;6279824;22;20082;-83
2022/09/14 10:01:14;;;;;;;4.90;2.15;;;;;;;13.19;100.00;99226.44;6280054;22;20007;-82
2022/09/14 10:03:41;;;;;;;5.65;2.30;;;;;;;13.15;100.00;99219.34;6240491;22;20031;-85
2022/09/14 10:06:10;;;;;;;4.05;1.90;;;;;;;13.11;100.00;99213.06;6305563;22;19996;-84
2022/09/14 10:08:45;;;;;;;5.78;2.20;;;;;;;13.04;100.00;99212.94;6309567;22;20010;-85
2022/09/14 10:11:31;;;;;;;7.28;2.38;;;;;;;13.01;100.00;99221.91;6289346;22;20063;-84
2022/09/14 10:13:57;;;;;;;6.65;2.33;;;;;;;13.04;100.00;99223.88;6305680;22;19995;-82
2022/09/14 10:16:25;;;;;;;5.13;2.80;;;;;;;12.97;100.00;99218.34;6307884;22;20065;-82
2022/09/14 10:18:52;;;;;;;7.68;2.90;;;;;;;13.05;100.00;99222.72;6307369;22;20003;-83
2022/09/14 10:21:23;;;;;;;7.97;2.15;;;;;;;13.04;100.00;99219.19;6307695;22;20072;-83
2022/09/14 10:24:23;;;;;;;6.53;2.50;;;;;;;13.04;100.00;99215.69;6307462;22;20147;-83
2022/09/14 10:26:49;;;;;;;5.38;2.08;;;;;;;13.19;100.00;99231.13;6153057;23;20454;-81
2022/09/14 10:29:34;;;;;;;6.60;2.92;;;;;;;13.21;100.00;99224.13;6275158;22;20007;-84
2022/09/14 10:32:23;;;;;;;6.53;2.75;;;;;;;13.18;100.00;99218.63;6307213;22;20003;-81
2022/09/14 10:34:50;;;;;;;6.00;2.65;;;;;;;13.23;100.00;99210.06;6279703;22;20018;-82
2022/09/14 10:37:36;;;;;;;5.93;2.88;;;;;;;13.10;100.00;99215.00;6307378;22;20006;-82
2022/09/14 10:40:26;;;;;;;8.68;3.08;;;;;;;13.15;100.00;99216.59;6305359;22;20436;-82
2022/09/14 10:43:08;;;;;;;5.32;2.45;;;;;;;13.26;100.00;99220.25;6305574;22;20003;-83
2022/09/14 10:45:58;;;;;;;8.60;3.92;;;;;;;13.34;100.00;99218.41;6279501;22;20015;-84
2022/09/14 10:48:39;;;;;;;5.40;2.92;;;;;;;13.34;100.00;99210.19;6307135;22;20006;-83
2022/09/14 10:51:30;;;;;;;9.88;3.60;;;;;;;13.37;100.00;99214.91;6307020;22;20015;-82
2022/09/14 10:54:07;;;;;;;7.47;3.30;;;;;;;13.24;100.00;99206.19;6307304;22;20076;-82
2022/09/14 10:56:39;;;;;;;6.47;3.40;;;;;;;13.31;100.00;99206.28;6307471;22;20055;-82
2022/09/14 10:59:04;;;;;;;6.25;3.33;;;;;;;13.24;100.00;99200.72;6306982;22;20026;-81
2022/09/14 11:02:01;;;;;;;7.63;3.50;;;;;;;13.15;100.00;99198.25;6307477;22;20007;-79
2022/09/14 11:04:51;;;;;;;5.88;2.85;;;;;;;13.08;100.00;99205.56;6306930;22;20006;-86
2022/09/14 11:07:25;;;;;;;6.82;2.92;;;;;;;13.12;100.00;99200.97;6306912;22;20204;-81
2022/09/14 11:10:38;;;;;;;6.45;3.25;;;;;;;13.28;100.00;99206.25;6307197;22;20035;-83
2022/09/14 11:13:34;;;;;;;5.72;2.85;;;;;;;13.22;100.00;99203.81;6197142;22;20001;-81
2022/09/14 11:16:23;;;;;;;6.35;2.67;;;;;;;13.22;100.00;99205.75;6306832;22;20110;-81
2022/09/14 11:18:57;;;;;;;5.95;2.72;;;;;;;13.22;100.00;99205.75;6305389;22;20451;-81
2022/09/14 11:21:31;;;;;;;5.07;2.30;;;;;;;13.06;100.00;99208.69;6306527;22;20003;-81
2022/09/14 11:24:35;;;;;;;5.88;2.30;;;;;;;13.11;100.00;99208.38;6278968;22;20006;-81
2022/09/14 11:27:53;;;;;;;9.27;3.00;;;;;;;13.05;100.00;99203.59;6279758;22;20078;-82
2022/09/14 11:30:21;;;;;;;3.08;1.30;;;;;;;12.92;100.00;99187.44;6212367;23;20080;-81
2022/09/14 11:33:23;;;;;;;3.95;1.50;;;;;;;12.83;100.00;99177.97;6187223;23;20422;-81
2022/09/14 11:35:57;;;;;;;3.30;1.30;;;;;;;12.68;100.00;99179.75;6271406;22;20007;-82
2022/09/14 11:38:33;;;;;;;3.15;1.17;;;;;;;12.71;100.00;99187.19;6307078;22;20012;-84
2022/09/14 11:41:17;;;;;;;1.77;0.80;;;;;;;12.56;100.00;99188.16;6272896;22;20055;-80
2022/09/14 11:43:52;;;;;;;1.95;0.80;;;;;;;12.51;100.00;99167.44;6275915;22;20095;-81
2022/09/14 11:46:25;;;;;;;2.15;0.80;;;;;;;12.42;100.00;99149.75;6273886;22;20008;-80
2022/09/14 11:49:27;;;;;;;3.10;1.02;;;;;;;12.44;100.00;99148.25;6275505;22;20058;-79
2022/09/14 11:52:24;;;;;;;2.03;0.75;;;;;;;12.39;100.00;99162.19;6275727;22;20023;-80
2022/09/14 11:54:51;;;;;;;1.92;0.70;;;;;;;12.43;100.00;99167.69;6250135;22;20086;-80